createdAt,value
2023-02-19T00:00:14.719Z,8.10
2023-02-19T00:01:38.881Z,8.27
2023-02-19T00:02:59.873Z,7.50
2023-02-19T00:04:21.644Z,7.72
2023-02-19T00:05:42.081Z,6.03
2023-02-19T00:07:02.978Z,7.53
2023-02-19T00:08:23.640Z,6.93
2023-02-19T00:09:44.456Z,5.97
2023-02-19T00:11:07.598Z,7.50
2023-02-19T00:12:28.365Z,7.07
2023-02-19T00:13:50.621Z,6.43
2023-02-19T00:15:11.465Z,6.30
2023-02-19T00:16:33.813Z,6.28
2023-02-19T00:17:55.960Z,6.32
2023-02-19T00:19:18.415Z,7.00
2023-02-19T00:20:39.029Z,6.22
2023-02-19T00:21:59.796Z,6.60
2023-02-19T00:23:20.727Z,6.68
2023-02-19T00:24:42.533Z,5.75
2023-02-19T00:26:17.144Z,5.63
2023-02-19T00:27:38.788Z,5.43
2023-02-19T00:29:00.744Z,6.22
2023-02-19T00:31:42.587Z,6.10
2023-02-19T00:33:04.492Z,5.90
2023-02-19T00:34:24.901Z,5.70
2023-02-19T00:35:45.649Z,6.30
2023-02-19T00:37:06.591Z,6.40
2023-02-19T00:38:27.440Z,5.88
2023-02-19T00:39:48.713Z,5.78
2023-02-19T00:41:10.354Z,5.78
2023-02-19T00:42:31.052Z,5.40
2023-02-19T00:43:53.738Z,5.18
2023-02-19T00:45:14.567Z,5.55
2023-02-19T00:46:36.764Z,5.15
2023-02-19T00:47:57.261Z,5.90
2023-02-19T00:49:21.510Z,6.07
2023-02-19T00:50:42.424Z,5.28
2023-02-19T00:52:03.420Z,5.18
2023-02-19T00:53:23.940Z,4.18
2023-02-19T00:54:44.511Z,6.07
2023-02-19T00:56:05.953Z,5.57
2023-02-19T00:57:26.611Z,5.78
2023-02-19T00:58:48.645Z,5.95
2023-02-19T01:00:10.863Z,5.40
2023-02-19T01:01:31.746Z,4.65
2023-02-19T01:02:52.288Z,5.53
2023-02-19T01:04:13.574Z,5.97
2023-02-19T01:05:35.472Z,5.40
2023-02-19T01:06:55.927Z,5.95
2023-02-19T01:08:16.675Z,5.00
2023-02-19T01:09:37.230Z,5.45
2023-02-19T01:10:58.284Z,5.95
2023-02-19T01:12:18.925Z,5.82
2023-02-19T01:13:39.965Z,6.63
2023-02-19T01:15:00.583Z,5.18
2023-02-19T01:16:22.587Z,6.30
2023-02-19T01:17:43.589Z,5.22
2023-02-19T01:19:04.478Z,4.65
2023-02-19T01:20:25.456Z,5.13
2023-02-19T01:21:47.439Z,5.68
2023-02-19T01:24:28.511Z,5.60
2023-02-19T01:25:49.510Z,4.85
2023-02-19T01:27:10.079Z,5.40
2023-02-19T01:28:30.662Z,5.65
2023-02-19T01:29:51.441Z,6.18
2023-02-19T01:31:14.113Z,4.72
2023-02-19T01:32:34.999Z,5.47
2023-02-19T01:33:57.530Z,5.22
2023-02-19T01:35:18.038Z,5.78
2023-02-19T01:36:39.090Z,5.32
2023-02-19T01:38:00.764Z,6.93
2023-02-19T01:39:21.657Z,5.45
2023-02-19T01:40:42.419Z,5.28
2023-02-19T01:42:04.591Z,6.32
2023-02-19T01:43:25.366Z,5.45
2023-02-19T01:45:27.560Z,6.32
2023-02-19T01:46:48.045Z,5.43
2023-02-19T01:48:12.296Z,5.70
2023-02-19T01:49:36.918Z,5.63
2023-02-19T01:51:00.374Z,5.15
2023-02-19T01:52:24.360Z,5.55
2023-02-19T01:53:50.165Z,5.38
2023-02-19T01:55:12.710Z,7.47
2023-02-19T01:56:34.957Z,6.35
2023-02-19T01:57:56.256Z,5.32
2023-02-19T01:59:17.481Z,5.97
2023-02-19T02:00:37.917Z,5.78
2023-02-19T02:01:59.403Z,5.72
2023-02-19T02:03:20.695Z,4.63
2023-02-19T02:04:41.087Z,5.22
2023-02-19T02:06:03.449Z,4.75
2023-02-19T02:07:24.065Z,5.40
2023-02-19T02:08:46.068Z,5.18
2023-02-19T02:10:07.374Z,5.00
2023-02-19T02:11:29.759Z,5.82
2023-02-19T02:12:53.729Z,5.28
2023-02-19T02:14:14.915Z,5.40
2023-02-19T02:15:40.143Z,5.65
2023-02-19T02:17:07.294Z,5.15
2023-02-19T02:18:42.394Z,5.32
2023-02-19T02:20:17.617Z,6.25
2023-02-19T02:21:53.724Z,5.45
2023-02-19T02:23:18.852Z,4.80
2023-02-19T02:25:10.012Z,6.05
2023-02-19T02:26:40.618Z,5.28
2023-02-19T02:29:49.432Z,4.60
2023-02-19T02:31:12.895Z,6.25
2023-02-19T02:32:36.909Z,4.65
2023-02-19T02:34:00.137Z,5.30
2023-02-19T02:35:23.438Z,5.00
2023-02-19T02:36:45.878Z,6.82
2023-02-19T02:38:08.597Z,5.50
2023-02-19T02:39:30.909Z,6.20
2023-02-19T02:40:51.700Z,5.43
2023-02-19T02:42:12.704Z,4.63
2023-02-19T02:43:33.391Z,6.32
2023-02-19T02:44:55.512Z,5.40
2023-02-19T02:46:19.366Z,5.63
2023-02-19T02:47:42.580Z,6.28
2023-02-19T02:49:06.580Z,5.75
2023-02-19T02:50:30.481Z,5.32
2023-02-19T02:51:52.889Z,5.55
2023-02-19T02:53:16.429Z,5.43
2023-02-19T02:54:37.367Z,5.65
2023-02-19T02:55:58.572Z,6.03
2023-02-19T02:57:19.511Z,6.30
2023-02-19T02:58:40.201Z,6.30
2023-02-19T03:00:02.190Z,5.38
2023-02-19T03:01:26.010Z,6.32
2023-02-19T03:02:47.053Z,5.78
2023-02-19T03:04:11.099Z,5.38
2023-02-19T03:05:31.993Z,5.32
2023-02-19T03:06:52.854Z,6.10
2023-02-19T03:08:16.003Z,4.85
2023-02-19T03:09:39.712Z,5.10
2023-02-19T03:11:03.844Z,5.50
2023-02-19T03:12:26.186Z,5.63
2023-02-19T03:13:47.840Z,5.70
2023-02-19T03:15:11.055Z,5.85
2023-02-19T03:16:34.338Z,6.47
2023-02-19T03:17:57.987Z,5.38
2023-02-19T03:19:20.363Z,5.65
2023-02-19T03:20:44.364Z,6.35
2023-02-19T03:22:08.368Z,6.22
2023-02-19T03:23:32.621Z,6.53
2023-02-19T03:24:55.798Z,5.97
2023-02-19T03:26:18.564Z,5.28
2023-02-19T03:27:40.941Z,6.18
2023-02-19T03:29:02.510Z,5.50
2023-02-19T03:30:28.171Z,5.70
2023-02-19T03:31:49.876Z,5.18
2023-02-19T03:33:13.329Z,5.53
2023-02-19T03:34:37.132Z,5.00
2023-02-19T03:36:00.524Z,5.72
2023-02-19T03:37:25.486Z,4.97
2023-02-19T03:38:49.437Z,4.68
2023-02-19T03:40:11.044Z,4.78
2023-02-19T03:41:35.727Z,4.70
2023-02-19T03:43:01.570Z,4.70
2023-02-19T03:44:27.870Z,5.20
2023-02-19T03:45:55.839Z,5.15
2023-02-19T03:47:20.895Z,5.53
2023-02-19T03:48:48.198Z,5.10
2023-02-19T03:50:15.792Z,5.13
2023-02-19T03:51:41.451Z,5.45
2023-02-19T03:53:06.085Z,5.20
2023-02-19T03:54:32.752Z,5.65
2023-02-19T03:56:03.323Z,4.28
2023-02-19T03:57:28.541Z,4.38
2023-02-19T03:58:53.118Z,4.95
2023-02-19T04:00:16.953Z,4.88
2023-02-19T04:01:41.983Z,4.70
2023-02-19T04:03:07.896Z,4.35
2023-02-19T04:04:32.429Z,4.88
2023-02-19T04:05:55.997Z,4.57
2023-02-19T04:07:16.379Z,5.85
2023-02-19T04:08:40.336Z,5.03
2023-02-19T04:10:01.170Z,5.18
2023-02-19T04:11:23.215Z,4.97
2023-02-19T04:12:47.403Z,5.15
2023-02-19T04:14:10.981Z,5.15
2023-02-19T04:15:34.227Z,5.40
2023-02-19T04:16:59.927Z,5.15
2023-02-19T04:18:24.174Z,6.80
2023-02-19T04:19:46.278Z,5.32
2023-02-19T04:21:08.644Z,5.00
2023-02-19T04:22:29.937Z,6.13
2023-02-19T04:23:51.004Z,5.55
2023-02-19T04:25:11.783Z,6.03
2023-02-19T04:26:33.674Z,6.03
2023-02-19T04:27:55.186Z,5.28
2023-02-19T04:29:16.007Z,6.22
2023-02-19T04:30:37.040Z,5.57
2023-02-19T04:31:59.365Z,6.88
2023-02-19T04:33:20.607Z,5.45
2023-02-19T04:36:02.831Z,6.53
2023-02-19T04:37:23.481Z,5.67
2023-02-19T04:38:44.197Z,7.13
2023-02-19T04:40:06.359Z,5.88
2023-02-19T04:41:27.706Z,6.20
2023-02-19T04:42:48.358Z,5.28
2023-02-19T04:44:08.979Z,5.40
2023-02-19T04:45:29.306Z,6.00
2023-02-19T04:46:50.195Z,6.53
2023-02-19T04:48:12.444Z,5.20
2023-02-19T04:49:33.080Z,6.32
2023-02-19T04:50:53.617Z,6.07
2023-02-19T04:52:14.130Z,4.80
2023-02-19T04:53:35.809Z,5.82
2023-02-19T04:54:56.506Z,6.78
2023-02-19T04:56:17.740Z,5.55
2023-02-19T04:57:38.713Z,6.40
2023-02-19T04:58:59.255Z,5.55
2023-02-19T05:00:19.966Z,5.28
2023-02-19T05:01:40.785Z,6.43
2023-02-19T05:03:01.653Z,6.35
2023-02-19T05:04:23.974Z,5.63
2023-02-19T05:05:44.932Z,5.00
2023-02-19T05:07:05.962Z,5.13
2023-02-19T05:08:26.805Z,5.45
2023-02-19T05:09:47.550Z,6.65
2023-02-19T05:11:10.844Z,5.45
2023-02-19T05:12:31.805Z,4.75
2023-02-19T05:13:52.469Z,5.47
2023-02-19T05:15:13.113Z,5.20
2023-02-19T05:16:33.882Z,5.80
2023-02-19T05:17:54.634Z,5.50
2023-02-19T05:19:15.659Z,6.10
2023-02-19T05:20:37.953Z,5.07
2023-02-19T05:21:58.528Z,5.32
2023-02-19T05:23:19.960Z,5.38
2023-02-19T05:24:40.369Z,6.72
2023-02-19T05:26:05.523Z,6.18
2023-02-19T05:27:26.060Z,5.95
2023-02-19T05:28:47.251Z,5.85
2023-02-19T05:30:09.280Z,5.22
2023-02-19T05:32:54.837Z,5.47
2023-02-19T05:34:16.342Z,5.63
2023-02-19T05:35:42.424Z,6.55
2023-02-19T05:37:03.056Z,5.63
2023-02-19T05:38:26.070Z,6.28
2023-02-19T05:39:46.809Z,5.60
2023-02-19T05:41:09.083Z,6.20
2023-02-19T05:42:29.676Z,6.88
2023-02-19T05:43:51.252Z,5.22
2023-02-19T05:45:11.856Z,6.78
2023-02-19T05:46:32.689Z,7.07
2023-02-19T05:47:53.355Z,6.53
2023-02-19T05:49:14.272Z,6.75
2023-02-19T05:50:38.198Z,6.57
2023-02-19T05:52:01.646Z,6.88
2023-02-19T05:53:22.401Z,7.82
2023-02-19T05:54:42.745Z,7.18
2023-02-19T05:56:03.866Z,7.00
2023-02-19T05:57:24.697Z,7.40
2023-02-19T05:58:45.502Z,7.25
2023-02-19T06:00:07.005Z,8.85
2023-02-19T06:01:28.699Z,8.20
2023-02-19T06:02:49.664Z,7.30
2023-02-19T06:04:11.135Z,7.10
2023-02-19T06:05:31.906Z,7.07
2023-02-19T06:06:52.582Z,6.65
2023-02-19T06:08:15.804Z,6.83
2023-02-19T06:09:36.763Z,6.70
2023-02-19T06:10:58.390Z,7.45
2023-02-19T06:12:19.065Z,6.90
2023-02-19T06:13:39.941Z,6.22
2023-02-19T06:15:00.862Z,6.68
2023-02-19T06:16:22.270Z,8.23
2023-02-19T06:17:43.504Z,7.03
2023-02-19T06:19:04.803Z,7.70
2023-02-19T06:20:26.376Z,7.90
2023-02-19T06:21:46.658Z,6.90
2023-02-19T06:23:07.359Z,8.00
2023-02-19T06:24:29.745Z,7.78
2023-02-19T06:25:50.592Z,6.18
2023-02-19T06:27:11.613Z,6.13
2023-02-19T06:28:31.981Z,7.03
2023-02-19T06:29:52.739Z,6.82
2023-02-19T06:31:14.217Z,6.88
2023-02-19T06:32:35.014Z,6.65
2023-02-19T06:33:55.650Z,8.27
2023-02-19T06:35:16.794Z,6.72
2023-02-19T06:36:37.605Z,6.65
2023-02-19T06:37:58.266Z,6.55
2023-02-19T06:39:19.187Z,7.00
2023-02-19T06:40:41.518Z,6.70
2023-02-19T06:42:02.281Z,6.88
2023-02-19T06:43:23.045Z,5.28
2023-02-19T06:44:43.735Z,6.25
2023-02-19T06:46:06.486Z,6.57
2023-02-19T06:47:29.209Z,6.88
2023-02-19T06:48:50.059Z,6.57
2023-02-19T06:50:10.900Z,6.20
2023-02-19T06:51:31.705Z,6.75
2023-02-19T06:52:52.325Z,5.90
2023-02-19T06:54:13.430Z,5.82
2023-02-19T06:55:34.387Z,6.10
2023-02-19T06:56:56.545Z,6.00
2023-02-19T06:58:17.324Z,6.38
2023-02-19T06:59:38.203Z,7.97
2023-02-19T07:00:59.597Z,6.65
2023-02-19T07:03:40.964Z,5.85
2023-02-19T07:05:01.520Z,6.95
2023-02-19T07:06:23.367Z,6.70
2023-02-19T07:07:45.914Z,6.32
2023-02-19T07:09:07.579Z,7.00
2023-02-19T07:10:28.962Z,7.75
2023-02-19T07:11:49.754Z,6.72
2023-02-19T07:13:11.960Z,6.75
2023-02-19T07:14:32.963Z,5.88
2023-02-19T07:15:58.766Z,7.05
2023-02-19T07:17:19.602Z,6.45
2023-02-19T07:18:41.128Z,7.72
2023-02-19T07:21:22.351Z,6.53
2023-02-19T07:22:43.214Z,7.63
2023-02-19T07:24:04.478Z,7.80
2023-02-19T07:25:25.702Z,7.68
2023-02-19T07:26:46.654Z,7.43
2023-02-19T07:28:07.985Z,8.27
2023-02-19T07:29:30.034Z,7.65
2023-02-19T07:30:51.158Z,8.50
2023-02-19T07:32:12.460Z,8.90
2023-02-19T07:33:33.400Z,8.57
2023-02-19T07:34:54.805Z,6.85
2023-02-19T07:36:16.277Z,7.80
2023-02-19T07:37:37.129Z,8.18
2023-02-19T07:38:59.156Z,8.55
2023-02-19T07:40:20.364Z,7.35
2023-02-19T07:41:41.433Z,8.07
2023-02-19T07:43:02.100Z,8.40
2023-02-19T07:44:23.073Z,7.80
2023-02-19T07:45:45.916Z,7.90
2023-02-19T07:47:07.156Z,8.70
2023-02-19T07:48:28.582Z,9.48
2023-02-19T07:49:49.062Z,9.30
2023-02-19T07:51:12.930Z,7.43
2023-02-19T07:52:35.528Z,7.95
2023-02-19T07:53:56.112Z,7.57
2023-02-19T07:55:16.802Z,7.30
2023-02-19T07:56:37.606Z,8.68
2023-02-19T07:57:59.176Z,7.53
2023-02-19T07:59:20.082Z,7.80
2023-02-19T08:00:41.062Z,8.05
2023-02-19T08:02:03.230Z,8.05
2023-02-19T08:03:24.369Z,7.40
2023-02-19T08:04:47.179Z,7.60
2023-02-19T08:06:08.974Z,7.95
2023-02-19T08:07:32.032Z,6.72
2023-02-19T08:08:54.365Z,8.50
2023-02-19T08:10:16.658Z,7.82
2023-02-19T08:11:37.432Z,7.18
2023-02-19T08:12:58.164Z,7.38
2023-02-19T08:14:19.283Z,6.17
2023-02-19T08:15:39.768Z,6.85
2023-02-19T08:17:04.556Z,6.72
2023-02-19T08:18:27.887Z,5.35
2023-02-19T08:19:48.473Z,6.80
2023-02-19T08:21:09.804Z,6.25
2023-02-19T08:23:51.422Z,5.97
2023-02-19T08:25:12.408Z,6.63
2023-02-19T08:26:33.516Z,6.10
2023-02-19T08:27:55.313Z,6.50
2023-02-19T08:29:16.747Z,6.00
2023-02-19T08:30:39.213Z,5.32
2023-02-19T08:32:00.188Z,6.18
2023-02-19T08:33:27.613Z,6.78
2023-02-19T08:34:50.597Z,5.82
2023-02-19T08:36:12.660Z,6.07
2023-02-19T08:37:33.656Z,6.90
2023-02-19T08:38:54.698Z,6.25
2023-02-19T08:40:15.822Z,6.22
2023-02-19T08:41:36.917Z,6.55
2023-02-19T08:43:02.766Z,6.38
2023-02-19T08:44:23.700Z,5.88
2023-02-19T08:45:45.548Z,6.38
2023-02-19T08:47:06.296Z,7.03
2023-02-19T08:48:28.967Z,6.35
2023-02-19T08:49:50.133Z,6.35
2023-02-19T08:51:12.798Z,6.78
2023-02-19T08:52:34.094Z,6.93
2023-02-19T08:53:55.314Z,6.25
2023-02-19T08:55:16.470Z,6.72
2023-02-19T08:56:37.810Z,6.72
2023-02-19T08:57:59.270Z,7.85
2023-02-19T08:59:20.082Z,5.90
2023-02-19T09:00:40.734Z,5.97
2023-02-19T09:02:01.651Z,6.55
2023-02-19T09:03:22.883Z,7.88
2023-02-19T09:04:45.203Z,6.40
2023-02-19T09:06:06.714Z,6.22
2023-02-19T09:07:27.604Z,6.70
2023-02-19T09:08:48.512Z,6.07
2023-02-19T09:10:10.735Z,5.65
2023-02-19T09:11:31.689Z,7.75
2023-02-19T09:12:52.228Z,7.25
2023-02-19T09:14:12.950Z,7.45
2023-02-19T09:15:33.569Z,5.97
2023-02-19T09:16:54.453Z,5.65
2023-02-19T09:18:15.076Z,4.65
2023-02-19T09:19:37.461Z,4.53
2023-02-19T09:21:01.337Z,5.47
2023-02-19T09:22:22.193Z,5.55
2023-02-19T09:23:42.997Z,4.63
2023-02-19T09:25:04.098Z,4.45
2023-02-19T09:26:25.330Z,4.90
2023-02-19T09:27:47.550Z,4.97
2023-02-19T09:29:10.240Z,4.35
2023-02-19T09:30:31.666Z,4.65
2023-02-19T09:31:55.582Z,4.65
2023-02-19T09:33:16.900Z,4.38
2023-02-19T09:34:37.933Z,3.85
2023-02-19T09:35:59.278Z,4.35
2023-02-19T09:37:25.371Z,4.95
2023-02-19T09:38:46.232Z,4.35
2023-02-19T09:40:07.456Z,4.53
2023-02-19T09:41:30.961Z,4.32
2023-02-19T09:42:51.806Z,4.32
2023-02-19T09:45:35.239Z,4.25
2023-02-19T09:46:56.593Z,4.25
2023-02-19T09:48:17.254Z,4.28
2023-02-19T09:49:40.719Z,2.88
2023-02-19T09:51:01.704Z,3.33
2023-02-19T09:52:31.173Z,3.90
2023-02-19T09:53:52.657Z,3.50
2023-02-19T09:56:40.094Z,3.85
2023-02-19T09:58:03.727Z,3.63
2023-02-19T09:59:27.030Z,3.58
2023-02-19T10:00:49.458Z,3.70
2023-02-19T10:02:14.341Z,3.42
2023-02-19T10:03:38.082Z,4.43
2023-02-19T10:04:59.037Z,2.95
2023-02-19T10:06:22.571Z,2.65
2023-02-19T10:07:46.207Z,2.65
2023-02-19T10:09:17.831Z,1.90
2023-02-19T10:10:38.897Z,2.33
2023-02-19T10:11:59.998Z,2.42
2023-02-19T10:13:22.626Z,2.30
2023-02-19T10:14:46.458Z,2.13
2023-02-19T10:16:10.781Z,2.25
2023-02-19T10:17:33.242Z,2.17
2023-02-19T10:18:54.480Z,2.40
2023-02-19T10:20:16.340Z,2.30
2023-02-19T10:21:38.423Z,1.77
2023-02-19T10:23:03.169Z,1.83
2023-02-19T10:24:26.754Z,2.40
2023-02-19T10:25:50.067Z,2.67
2023-02-19T10:27:12.712Z,2.72
2023-02-19T10:28:34.984Z,2.03
2023-02-19T10:29:55.847Z,1.77
2023-02-19T10:31:20.881Z,1.90
2023-02-19T10:32:58.986Z,2.25
2023-02-19T10:34:23.273Z,2.13
2023-02-19T10:35:53.753Z,2.55
2023-02-19T10:37:16.682Z,3.17
2023-02-19T10:38:40.129Z,2.60
2023-02-19T10:40:01.286Z,2.20
2023-02-19T10:41:23.552Z,1.80
2023-02-19T10:42:46.547Z,2.00
2023-02-19T10:44:10.818Z,2.30
2023-02-19T10:45:38.708Z,2.22
2023-02-19T10:47:00.153Z,2.30
2023-02-19T10:48:23.818Z,2.28
2023-02-19T10:49:44.256Z,2.55
2023-02-19T10:51:07.446Z,2.63
2023-02-19T10:52:29.464Z,2.67
2023-02-19T10:54:03.145Z,2.20
2023-02-19T10:55:29.934Z,2.63
2023-02-19T10:56:50.795Z,2.75
2023-02-19T10:58:23.394Z,1.77
2023-02-19T10:59:49.889Z,2.38
2023-02-19T11:01:13.507Z,2.40
2023-02-19T11:02:36.796Z,2.85
2023-02-19T11:04:15.874Z,1.88
2023-02-19T11:05:37.365Z,1.20
2023-02-19T11:06:57.896Z,1.92
2023-02-19T11:08:22.547Z,2.10
2023-02-19T11:09:46.156Z,2.22
2023-02-19T11:11:07.193Z,1.73
2023-02-19T11:12:30.128Z,1.63
2023-02-19T11:13:51.515Z,1.00
2023-02-19T11:15:20.894Z,1.30
2023-02-19T11:16:44.298Z,1.38
2023-02-19T11:18:08.420Z,1.75
2023-02-19T11:19:31.594Z,2.20
2023-02-19T11:20:54.384Z,1.58
2023-02-19T11:22:20.533Z,1.50
2023-02-19T11:23:45.442Z,1.42
2023-02-19T11:25:19.094Z,1.70
2023-02-19T11:26:39.779Z,2.58
2023-02-19T11:28:03.511Z,1.53
2023-02-19T11:29:24.861Z,2.58
2023-02-19T11:30:46.485Z,2.20
2023-02-19T11:33:44.200Z,2.03
2023-02-19T11:35:14.783Z,2.38
2023-02-19T11:36:37.219Z,2.00
2023-02-19T11:37:59.222Z,2.67
2023-02-19T11:39:22.148Z,2.38
2023-02-19T11:40:48.252Z,2.30
2023-02-19T11:42:43.004Z,2.47
2023-02-19T11:44:14.493Z,2.20
2023-02-19T11:45:38.621Z,2.10
2023-02-19T11:47:13.902Z,2.53
2023-02-19T11:48:52.212Z,2.13
2023-02-19T11:50:21.604Z,2.25
2023-02-19T11:51:58.232Z,2.70
2023-02-19T11:53:25.414Z,2.20
2023-02-19T11:54:51.730Z,1.83
2023-02-19T11:56:18.566Z,2.30
2023-02-19T11:57:42.076Z,1.77
2023-02-19T11:59:03.988Z,2.20
2023-02-19T12:00:27.259Z,2.05
2023-02-19T12:02:06.272Z,1.80
2023-02-19T12:03:39.797Z,2.40
2023-02-19T12:05:28.742Z,2.33
2023-02-19T12:06:56.814Z,1.50
2023-02-19T12:08:36.341Z,2.30
2023-02-19T12:10:06.480Z,1.73
2023-02-19T12:11:41.000Z,1.73
2023-02-19T12:13:07.441Z,2.03
2023-02-19T12:15:12.704Z,2.13
2023-02-19T12:16:39.099Z,1.90
2023-02-19T12:18:19.585Z,2.30
2023-02-19T12:19:48.940Z,2.38
2023-02-19T12:21:21.292Z,2.20
2023-02-19T12:22:44.501Z,2.22
2023-02-19T12:24:24.472Z,2.17
2023-02-19T12:25:52.668Z,2.20
2023-02-19T12:27:22.150Z,2.55
2023-02-19T12:29:11.581Z,2.00
2023-02-19T12:30:48.642Z,3.03
2023-02-19T12:32:34.046Z,2.25
2023-02-19T12:34:24.721Z,1.92
2023-02-19T12:35:56.888Z,3.80
2023-02-19T12:37:27.424Z,1.85
2023-02-19T12:38:53.928Z,1.88
2023-02-19T12:40:25.858Z,1.75
2023-02-19T12:41:52.096Z,1.77
2023-02-19T12:43:16.033Z,2.20
2023-02-19T12:44:40.860Z,2.92
2023-02-19T12:46:04.690Z,2.85
2023-02-19T12:47:28.282Z,2.65
2023-02-19T12:48:52.239Z,2.92
2023-02-19T12:50:18.608Z,3.70
2023-02-19T12:51:43.300Z,2.53
2023-02-19T12:53:10.864Z,2.30
2023-02-19T12:54:34.829Z,2.47
2023-02-19T12:55:56.907Z,2.50
2023-02-19T12:57:21.732Z,2.17
2023-02-19T12:58:46.824Z,1.88
2023-02-19T13:00:18.577Z,1.73
2023-02-19T13:01:44.131Z,1.55
2023-02-19T13:03:11.039Z,1.63
2023-02-19T13:04:37.375Z,1.73
2023-02-19T13:06:01.928Z,1.42
2023-02-19T13:07:26.216Z,1.60
2023-02-19T13:09:05.420Z,1.30
2023-02-19T13:10:30.794Z,2.00
2023-02-19T13:11:56.475Z,2.22
2023-02-19T13:13:20.588Z,1.67
2023-02-19T13:14:46.019Z,1.48
2023-02-19T13:16:09.824Z,1.60
2023-02-19T13:17:36.061Z,1.13
2023-02-19T13:18:59.040Z,1.33
2023-02-19T13:20:28.336Z,1.27
2023-02-19T13:21:56.575Z,1.20
2023-02-19T13:23:22.098Z,1.15
2023-02-19T13:24:43.139Z,1.13
2023-02-19T13:26:19.717Z,0.82
2023-02-19T13:27:55.828Z,1.00
2023-02-19T13:29:38.108Z,0.90
2023-02-19T13:31:16.714Z,0.73
2023-02-19T13:32:58.316Z,0.93
2023-02-19T13:34:26.173Z,0.90
2023-02-19T13:36:03.482Z,0.93
2023-02-19T13:37:24.896Z,1.00
2023-02-19T13:38:47.269Z,0.90
2023-02-19T13:40:21.961Z,0.80
2023-02-19T13:41:52.392Z,1.13
2023-02-19T13:43:24.877Z,1.40
2023-02-19T13:44:48.395Z,0.82
2023-02-19T13:46:14.251Z,0.88
2023-02-19T13:47:49.634Z,1.00
2023-02-19T13:49:43.371Z,0.80
2023-02-19T13:51:38.755Z,0.98
2023-02-19T13:52:59.987Z,1.13
2023-02-19T13:54:25.960Z,1.05
2023-02-19T13:55:50.183Z,1.02
2023-02-19T13:57:26.579Z,1.10
2023-02-19T13:58:56.959Z,1.25
2023-02-19T14:00:49.558Z,1.38
2023-02-19T14:03:35.206Z,0.80
2023-02-19T14:04:57.349Z,1.08
2023-02-19T14:06:25.980Z,2.33
2023-02-19T14:07:57.322Z,0.90
2023-02-19T14:09:46.509Z,2.67
2023-02-19T14:11:12.115Z,0.90
2023-02-19T14:17:24.655Z,0.90
2023-02-19T14:20:42.193Z,1.10
2023-02-19T14:22:45.137Z,0.80
2023-02-19T14:24:11.750Z,1.17
2023-02-19T14:25:47.261Z,0.80
2023-02-19T14:27:14.633Z,0.98
2023-02-19T14:28:45.912Z,1.15
2023-02-19T14:30:19.729Z,0.90
2023-02-19T14:31:59.210Z,0.98
2023-02-19T14:33:26.438Z,1.08
2023-02-19T14:34:52.548Z,0.85
2023-02-19T14:36:42.302Z,0.75
2023-02-19T14:38:07.208Z,0.70
2023-02-19T14:39:35.071Z,0.70
2023-02-19T14:41:16.743Z,0.80
2023-02-19T14:42:49.507Z,0.55
2023-02-19T14:44:20.136Z,0.60
2023-02-19T14:46:05.360Z,0.77
2023-02-19T14:47:38.296Z,0.73
2023-02-19T14:49:40.726Z,0.63
2023-02-19T14:51:54.119Z,0.80
2023-02-19T14:53:32.674Z,0.85
2023-02-19T14:54:55.693Z,0.98
2023-02-19T14:56:20.307Z,1.30
2023-02-19T14:57:43.538Z,1.00
2023-02-19T14:59:09.651Z,1.38
2023-02-19T15:00:33.775Z,1.23
2023-02-19T15:01:59.344Z,1.60
2023-02-19T15:03:29.178Z,1.20
2023-02-19T15:04:50.461Z,0.68
2023-02-19T15:06:14.048Z,0.65
2023-02-19T15:07:36.433Z,0.90
2023-02-19T15:08:59.068Z,0.80
2023-02-19T15:10:21.431Z,0.93
2023-02-19T15:11:42.897Z,1.08
2023-02-19T15:13:04.776Z,0.90
2023-02-19T15:14:26.176Z,0.73
2023-02-19T15:15:46.935Z,0.77
2023-02-19T15:17:08.121Z,0.70
2023-02-19T15:18:28.618Z,0.80
2023-02-19T15:19:49.258Z,0.68
2023-02-19T15:21:21.178Z,0.47
2023-02-19T15:22:43.451Z,1.13
2023-02-19T15:24:05.925Z,1.02
2023-02-19T15:25:30.581Z,0.60
2023-02-19T15:26:52.336Z,0.82
2023-02-19T15:28:19.851Z,0.65
2023-02-19T15:29:45.573Z,0.80
2023-02-19T15:31:16.112Z,0.70
2023-02-19T15:32:36.749Z,0.60
2023-02-19T15:33:57.748Z,0.75
2023-02-19T15:35:19.285Z,0.50
2023-02-19T15:36:39.731Z,0.55
2023-02-19T15:38:01.597Z,0.80
2023-02-19T15:39:24.143Z,0.40
2023-02-19T15:40:45.719Z,0.90
2023-02-19T15:42:07.761Z,0.63
2023-02-19T15:43:30.365Z,0.68
2023-02-19T15:44:56.019Z,0.80
2023-02-19T15:46:20.600Z,0.88
2023-02-19T15:47:44.215Z,0.60
2023-02-19T15:49:09.690Z,0.90
2023-02-19T15:50:31.398Z,1.30
2023-02-19T15:51:54.237Z,0.93
2023-02-19T15:53:18.942Z,0.98
2023-02-19T15:54:46.350Z,1.05
2023-02-19T15:56:09.890Z,1.15
2023-02-19T15:57:36.686Z,0.60
2023-02-19T15:59:01.104Z,0.98
2023-02-19T16:00:26.803Z,0.60
2023-02-19T16:01:48.287Z,0.60
2023-02-19T16:03:13.755Z,0.60
2023-02-19T16:04:34.919Z,0.73
2023-02-19T16:07:28.217Z,0.90
2023-02-19T16:09:02.044Z,0.70
2023-02-19T16:10:24.980Z,0.40
2023-02-19T16:11:49.940Z,0.45
2023-02-19T16:13:12.261Z,0.60
2023-02-19T16:14:34.147Z,0.47
2023-02-19T16:16:00.953Z,2.60
2023-02-19T16:17:22.654Z,1.45
2023-02-19T16:18:45.079Z,0.60
2023-02-19T16:20:17.609Z,0.50
2023-02-19T16:21:38.639Z,0.82
2023-02-19T16:23:02.643Z,1.00
2023-02-19T16:24:29.045Z,0.60
2023-02-19T16:25:50.553Z,0.93
2023-02-19T16:27:12.177Z,0.90
2023-02-19T16:28:36.981Z,0.80
2023-02-19T16:29:58.467Z,1.00
2023-02-19T16:31:22.040Z,0.90
2023-02-19T16:32:43.197Z,0.80
2023-02-19T16:34:16.607Z,0.90
2023-02-19T16:35:38.794Z,0.70
2023-02-19T16:36:59.336Z,0.75
2023-02-19T16:38:21.044Z,0.60
2023-02-19T16:39:43.391Z,0.57
2023-02-19T16:41:12.413Z,0.60
2023-02-19T16:42:33.377Z,1.00
2023-02-19T16:43:54.130Z,0.70
2023-02-19T16:45:14.585Z,0.97
2023-02-19T16:46:35.531Z,0.80
2023-02-19T16:47:56.498Z,0.60
2023-02-19T16:49:17.334Z,1.00
2023-02-19T16:50:41.273Z,1.10
2023-02-19T16:52:04.758Z,0.70
2023-02-19T16:53:25.938Z,1.10
2023-02-19T16:54:49.302Z,1.05
2023-02-19T16:56:15.670Z,1.80
2023-02-19T16:57:36.955Z,1.08
2023-02-19T16:58:57.572Z,1.30
2023-02-19T17:00:20.211Z,0.85
2023-02-19T17:01:41.310Z,1.27
2023-02-19T17:03:03.941Z,1.23
2023-02-19T17:04:24.744Z,1.10
2023-02-19T17:05:45.519Z,1.45
2023-02-19T17:07:06.542Z,1.23
2023-02-19T17:08:31.195Z,1.20
2023-02-19T17:09:53.737Z,1.15
2023-02-19T17:11:15.937Z,1.20
2023-02-19T17:12:37.005Z,1.40
2023-02-19T17:13:57.658Z,1.58
2023-02-19T17:15:18.643Z,1.35
2023-02-19T17:16:39.411Z,1.27
2023-02-19T17:18:08.863Z,0.98
2023-02-19T17:19:29.726Z,1.40
2023-02-19T17:20:52.227Z,1.40
2023-02-19T17:22:12.857Z,1.45
2023-02-19T17:23:33.568Z,0.95
2023-02-19T17:24:55.897Z,1.20
2023-02-19T17:26:18.210Z,1.33
2023-02-19T17:27:38.948Z,1.20
2023-02-19T17:29:01.286Z,1.20
2023-02-19T17:30:26.926Z,1.70
2023-02-19T17:31:48.167Z,1.33
2023-02-19T17:33:08.974Z,1.23
2023-02-19T17:34:29.555Z,1.37
2023-02-19T17:35:50.329Z,1.20
2023-02-19T17:37:11.068Z,1.35
2023-02-19T17:38:31.922Z,1.25
2023-02-19T17:39:52.672Z,1.63
2023-02-19T17:41:14.798Z,1.30
2023-02-19T17:42:35.726Z,1.80
2023-02-19T17:43:56.527Z,2.00
2023-02-19T17:45:17.451Z,1.85
2023-02-19T17:46:39.033Z,1.60
2023-02-19T17:47:59.848Z,1.58
2023-02-19T17:49:20.907Z,2.47
2023-02-19T17:50:42.089Z,1.40
2023-02-19T17:52:02.805Z,1.90
2023-02-19T17:53:23.345Z,1.60
2023-02-19T17:54:43.976Z,2.10
2023-02-19T17:56:05.523Z,1.95
2023-02-19T17:57:27.746Z,1.83
2023-02-19T17:58:49.026Z,4.15
2023-02-19T18:00:13.179Z,2.67
2023-02-19T18:01:34.033Z,2.30
2023-02-19T18:02:55.015Z,2.80
2023-02-19T18:04:15.757Z,2.67
2023-02-19T18:05:36.464Z,2.80
2023-02-19T18:06:57.534Z,4.00
2023-02-19T18:08:18.778Z,4.65
2023-02-19T18:09:40.011Z,4.60
2023-02-19T18:11:00.684Z,4.38
2023-02-19T18:12:21.524Z,4.03
2023-02-19T18:13:43.471Z,4.03
2023-02-19T18:15:04.696Z,3.88
2023-02-19T18:16:25.271Z,3.67
2023-02-19T18:17:46.175Z,3.42
2023-02-19T18:19:08.146Z,3.00
2023-02-19T18:20:29.709Z,3.33
2023-02-19T18:21:50.145Z,2.65
2023-02-19T18:23:10.745Z,3.05
2023-02-19T18:24:31.261Z,5.00
2023-02-19T18:25:52.153Z,2.80
2023-02-19T18:27:12.892Z,2.72
2023-02-19T18:28:34.739Z,2.70
2023-02-19T18:29:56.654Z,2.58
2023-02-19T18:31:17.257Z,2.47
2023-02-19T18:32:38.502Z,3.53
2023-02-19T18:33:59.141Z,3.33
2023-02-19T18:35:20.682Z,3.30
2023-02-19T18:38:04.027Z,4.93
2023-02-19T18:39:25.010Z,4.28
2023-02-19T18:40:45.996Z,4.03
2023-02-19T18:42:06.556Z,3.63
2023-02-19T18:43:27.334Z,3.28
2023-02-19T18:44:48.819Z,4.07
2023-02-19T18:46:11.664Z,3.60
2023-02-19T18:47:32.301Z,3.83
2023-02-19T18:48:54.269Z,4.60
2023-02-19T18:50:15.555Z,4.47
2023-02-19T18:51:36.163Z,4.10
2023-02-19T18:52:56.716Z,4.60
2023-02-19T18:54:17.561Z,4.60
2023-02-19T18:55:38.222Z,4.75
2023-02-19T18:56:59.161Z,3.40
2023-02-19T18:58:19.960Z,4.68
2023-02-19T18:59:40.984Z,4.57
2023-02-19T19:01:01.445Z,4.13
2023-02-19T19:02:23.530Z,4.32
2023-02-19T19:03:43.977Z,4.15